Time;durP1;ratioP1;P1;durP2;ratioP2;P2;SDS_P1;SDS_P2;PMS_P1;PMS_P2;Temp;Humidity;BMP_temperature;BMP_pressure;BME280_temperature;BME280_humidity;BME280_pressure;Samples;Min_cycle;Max_cycle;Signal;HPM_P1;HPM_P2
2023/02/18 00:01:46;;;;;;;65.10;40.60;;;;;;;2.19;95.58;97560.48;110259;1243;70609;-73
2023/02/18 00:04:15;;;;;;;67.10;43.40;;;;;;;2.19;98.06;97562.20;110296;1246;69234;-71
2023/02/18 00:06:44;;;;;;;64.60;41.20;;;;;;;2.18;97.70;97560.20;110142;1242;69167;-71
2023/02/18 00:09:14;;;;;;;66.90;43.00;;;;;;;2.17;98.20;97560.05;110247;1242;58879;-71
2023/02/18 00:11:43;;;;;;;60.40;37.40;;;;;;;2.16;97.02;97555.23;110174;1241;58940;-71
2023/02/18 00:14:14;;;;;;;58.70;37.60;;;;;;;2.16;97.28;97549.93;110223;1242;71188;-71
2023/02/18 00:16:44;;;;;;;63.00;40.60;;;;;;;2.17;97.59;97551.09;110212;1242;69185;-71
2023/02/18 00:19:18;;;;;;;62.80;38.80;;;;;;;2.20;98.57;97549.10;110199;1242;69271;-71
2023/02/18 00:21:47;;;;;;;57.20;37.10;;;;;;;2.23;98.31;97553.61;110203;1244;58932;-70
2023/02/18 00:24:17;;;;;;;60.40;39.20;;;;;;;2.25;97.67;97557.13;110224;1241;58905;-71
2023/02/18 00:26:50;;;;;;;60.20;36.30;;;;;;;2.27;97.73;97549.17;110201;1242;71082;-71
2023/02/18 00:29:20;;;;;;;58.60;38.40;;;;;;;2.29;96.37;97544.80;110217;1240;69772;-72
2023/02/18 00:31:49;;;;;;;49.40;32.00;;;;;;;2.32;96.68;97547.77;110217;1243;68507;-71
2023/02/18 00:34:19;;;;;;;58.60;37.10;;;;;;;2.36;97.56;97546.77;110179;1242;58902;-71
2023/02/18 00:36:48;;;;;;;65.10;39.60;;;;;;;2.39;97.35;97544.57;110241;1240;58869;-71
2023/02/18 00:39:18;;;;;;;61.30;38.60;;;;;;;2.42;97.35;97541.38;110262;1242;70643;-71
2023/02/18 00:41:47;;;;;;;57.60;37.00;;;;;;;2.45;97.93;97536.79;110073;1246;69737;-72
2023/02/18 00:44:16;;;;;;;61.20;35.80;;;;;;;2.47;97.46;97533.79;110096;1246;70127;-72
2023/02/18 00:46:48;;;;;;;55.80;33.80;;;;;;;2.48;96.61;97536.13;109788;1246;58945;-72
2023/02/18 00:49:18;;;;;;;54.50;35.50;;;;;;;2.50;96.85;97535.91;110150;1250;59274;-71
2023/02/18 00:51:49;;;;;;;58.70;37.50;;;;;;;2.52;96.97;97531.70;110028;1246;70447;-72
2023/02/18 00:54:18;;;;;;;64.60;38.40;;;;;;;2.52;96.57;97533.42;110115;1245;68580;-73
2023/02/18 00:56:48;;;;;;;61.90;38.30;;;;;;;2.51;96.22;97523.11;110133;1246;69092;-74
2023/02/18 00:59:17;;;;;;;58.20;36.50;;;;;;;2.51;96.14;97525.91;110124;1243;58939;-72
2023/02/18 01:01:47;;;;;;;60.30;35.60;;;;;;;2.52;96.67;97518.13;110159;1244;58940;-72
2023/02/18 01:04:17;;;;;;;56.30;34.90;;;;;;;2.53;96.49;97516.84;110143;1251;69800;-72
2023/02/18 01:06:48;;;;;;;56.20;35.10;;;;;;;2.54;98.05;97511.13;110153;1246;68497;-72
2023/02/18 01:09:18;;;;;;;53.30;35.30;;;;;;;2.57;98.86;97506.74;110203;1244;69783;-72
2023/02/18 01:11:48;;;;;;;54.80;34.50;;;;;;;2.60;97.87;97499.91;110228;1245;58908;-72
2023/02/18 01:14:18;;;;;;;54.30;33.40;;;;;;;2.62;97.48;97501.89;110145;1244;59237;-72
2023/02/18 01:16:48;;;;;;;53.20;32.30;;;;;;;2.63;97.68;97499.09;110197;1245;70609;-72
2023/02/18 01:19:18;;;;;;;55.00;35.80;;;;;;;2.66;98.55;97494.54;110203;1245;69811;-71
2023/02/18 01:21:47;;;;;;;66.60;39.30;;;;;;;2.68;98.95;97493.91;110210;1244;69111;-71
2023/02/18 01:24:16;;;;;;;64.40;39.50;;;;;;;2.67;98.83;97489.64;110139;1250;58938;-72
2023/02/18 01:26:45;;;;;;;62.60;38.50;;;;;;;2.67;98.52;97476.92;110226;1242;58927;-72
2023/02/18 01:29:15;;;;;;;61.30;37.60;;;;;;;2.66;97.73;97471.13;110134;1246;69835;-73
2023/02/18 01:31:44;;;;;;;55.40;34.10;;;;;;;2.64;97.33;97466.56;110261;1242;69100;-73
2023/02/18 01:34:16;;;;;;;53.80;34.90;;;;;;;2.61;96.61;97455.15;110176;1245;67596;-73
2023/02/18 01:36:45;;;;;;;57.40;35.50;;;;;;;2.59;96.77;97446.11;110219;1241;58930;-72
2023/02/18 01:39:18;;;;;;;54.00;33.40;;;;;;;2.57;96.46;97437.59;110189;1244;58948;-73
2023/02/18 01:41:47;;;;;;;61.90;38.30;;;;;;;2.53;97.46;97427.05;110119;1244;69714;-72
2023/02/18 01:44:24;;;;;;;60.60;38.90;;;;;;;2.49;99.42;97421.88;110197;1246;68568;-72
2023/02/18 01:46:55;;;;;;;63.70;39.60;;;;;;;2.48;99.57;97414.70;110102;1244;69129;-73
2023/02/18 01:49:29;;;;;;;61.90;39.00;;;;;;;2.43;99.79;97417.66;110013;1245;58944;-73
2023/02/18 01:52:13;;;;;;;56.80;37.50;;;;;;;2.41;99.20;97401.08;110112;1244;58895;-73
2023/02/18 01:54:54;;;;;;;64.00;38.20;;;;;;;2.38;99.96;97406.88;110153;1243;70718;-73
2023/02/18 01:57:36;;;;;;;57.80;36.80;;;;;;;2.35;100.00;97399.56;110130;1243;68480;-73
2023/02/18 02:00:11;;;;;;;55.90;33.90;;;;;;;2.34;100.00;97396.33;110091;1244;68288;-73
2023/02/18 02:02:49;;;;;;;59.40;35.50;;;;;;;2.35;100.00;97391.65;110222;1247;58865;-73
2023/02/18 02:05:20;;;;;;;64.20;38.30;;;;;;;2.35;100.00;97395.64;110320;1243;58935;-72
2023/02/18 02:07:53;;;;;;;61.80;38.10;;;;;;;2.34;99.98;97385.16;110241;1244;70416;-73
2023/02/18 02:10:22;;;;;;;74.10;45.50;;;;;;;2.32;100.00;97390.93;110263;1243;69072;-73
2023/02/18 02:13:06;;;;;;;68.60;41.80;;;;;;;2.32;100.00;97379.26;110279;1244;69732;-72
2023/02/18 02:15:48;;;;;;;67.90;42.30;;;;;;;2.33;100.00;97378.88;109923;1244;59353;-72
2023/02/18 02:18:36;;;;;;;64.10;38.70;;;;;;;2.33;100.00;97378.36;110084;1245;58944;-72
2023/02/18 02:21:36;;;;;;;64.70;38.60;;;;;;;2.31;100.00;97377.54;110131;1246;70061;-72
2023/02/18 02:24:24;;;;;;;59.00;34.00;;;;;;;2.33;100.00;97368.55;110179;1244;69351;-72
2023/02/18 02:27:16;;;;;;;68.40;40.00;;;;;;;2.34;100.00;97368.48;110219;1244;68396;-72
2023/02/18 02:30:11;;;;;;;65.40;38.90;;;;;;;2.36;100.00;97362.57;110112;1244;58929;-73
2023/02/18 02:33:18;;;;;;;56.90;37.20;;;;;;;2.37;100.00;97366.13;109952;1246;58905;-73
2023/02/18 02:35:59;;;;;;;63.50;37.80;;;;;;;2.39;100.00;97361.24;110197;1244;70640;-73
2023/02/18 02:38:38;;;;;;;68.20;42.20;;;;;;;2.40;100.00;97352.08;110125;1244;69226;-73
2023/02/18 02:41:50;;;;;;;65.80;37.50;;;;;;;2.40;100.00;97362.04;110196;1242;69905;-73
2023/02/18 02:44:33;;;;;;;54.90;33.70;;;;;;;2.40;100.00;97344.33;110199;1242;58872;-73
2023/02/18 02:47:26;;;;;;;69.30;39.80;;;;;;;2.42;100.00;97371.26;110381;1242;58892;-73
2023/02/18 02:50:01;;;;;;;65.80;38.60;;;;;;;2.42;100.00;97359.91;110286;1241;71164;-73
2023/02/18 02:52:43;;;;;;;62.30;39.20;;;;;;;2.42;100.00;97355.78;110201;1244;69279;-73
2023/02/18 02:55:13;;;;;;;62.70;38.50;;;;;;;2.43;100.00;97365.89;110287;1245;69329;-73
2023/02/18 02:57:47;;;;;;;65.20;37.10;;;;;;;2.44;100.00;97364.80;110141;1244;58880;-72
2023/02/18 03:00:49;;;;;;;69.10;39.70;;;;;;;2.44;100.00;97355.33;110155;1244;58996;-73
2023/02/18 03:03:42;;;;;;;72.40;41.30;;;;;;;2.46;100.00;97353.04;110338;1244;70734;-73
2023/02/18 03:06:26;;;;;;;74.10;46.90;;;;;;;2.45;100.00;97341.89;110323;1242;69076;-73
2023/02/18 03:09:23;;;;;;;63.80;39.60;;;;;;;2.44;100.00;97343.11;110266;1244;69376;-72
2023/02/18 03:12:28;;;;;;;65.70;39.40;;;;;;;2.43;100.00;97350.25;110297;1241;58956;-72
2023/02/18 03:14:58;;;;;;;58.10;35.70;;;;;;;2.41;100.00;97348.60;110401;1245;58893;-72
2023/02/18 03:17:34;;;;;;;;;;;;;;;2.40;100.00;97339.67;110381;1242;69824;-73
2023/02/18 03:20:09;;;;;;;58.40;34.60;;;;;;;2.41;100.00;97337.95;109917;1245;69228;-73
2023/02/18 03:22:46;;;;;;;51.20;33.90;;;;;;;2.41;100.00;97332.95;110127;1245;68693;-72
2023/02/18 03:25:19;;;;;;;61.60;37.80;;;;;;;2.43;100.00;97322.72;110130;1241;58857;-72
2023/02/18 03:27:55;;;;;;;79.80;47.10;;;;;;;2.42;100.00;97322.75;110139;1244;58896;-72
2023/02/18 03:30:30;;;;;;;80.80;48.80;;;;;;;2.33;100.00;97315.02;110113;1244;69791;-72
2023/02/18 03:33:04;;;;;;;69.70;43.00;;;;;;;2.24;100.00;97318.69;110322;1244;69082;-73
2023/02/18 03:35:37;;;;;;;62.00;41.90;;;;;;;2.22;100.00;97306.08;110398;1242;69247;-73
2023/02/18 03:38:25;;;;;;;63.70;38.90;;;;;;;2.20;100.00;97303.55;110333;1244;58830;-73
2023/02/18 03:40:58;;;;;;;69.70;43.40;;;;;;;2.13;100.00;97311.75;110332;1243;58892;-72
2023/02/18 03:43:29;;;;;;;79.50;45.50;;;;;;;2.10;100.00;97304.12;110089;1244;70946;-72
2023/02/18 03:46:02;;;;;;;79.90;47.70;;;;;;;2.11;100.00;97307.54;110298;1244;69243;-73
2023/02/18 03:48:31;;;;;;;67.10;41.90;;;;;;;2.11;100.00;97301.48;110225;1242;67529;-72
2023/02/18 03:51:02;;;;;;;76.00;47.10;;;;;;;2.12;100.00;97314.55;110129;1241;58873;-72
2023/02/18 03:53:33;;;;;;;84.20;49.00;;;;;;;2.12;100.00;97307.50;110349;1242;58838;-72
2023/02/18 03:56:04;;;;;;;70.60;42.50;;;;;;;2.13;100.00;97306.41;110198;1242;70585;-72
2023/02/18 03:58:35;;;;;;;66.90;41.70;;;;;;;2.16;100.00;97301.64;110202;1242;69237;-72
2023/02/18 04:01:05;;;;;;;;;;;;;;;2.20;100.00;97315.07;110403;1242;68347;-73
2023/02/18 04:03:35;;;;;;;69.70;40.70;;;;;;;2.21;100.00;97307.80;110312;1242;58950;-72
2023/02/18 04:06:06;;;;;;;59.80;37.40;;;;;;;2.24;100.00;97308.36;110227;1242;58873;-72
2023/02/18 04:08:36;;;;;;;53.50;32.50;;;;;;;2.29;100.00;97313.80;110359;1242;70601;-73
2023/02/18 04:11:06;;;;;;;68.80;41.30;;;;;;;2.34;100.00;97316.39;110372;1243;68506;-73
2023/02/18 04:13:36;;;;;;;71.80;42.30;;;;;;;2.37;100.00;97313.32;110177;1242;69159;-73
2023/02/18 04:16:06;;;;;;;69.90;42.10;;;;;;;2.41;100.00;97319.73;110424;1241;58922;-73
2023/02/18 04:18:35;;;;;;;72.40;42.60;;;;;;;2.44;100.00;97312.35;110199;1242;58861;-72
2023/02/18 04:21:05;;;;;;;66.60;38.40;;;;;;;2.48;100.00;97304.09;110180;1242;69200;-73
2023/02/18 04:23:37;;;;;;;75.10;45.60;;;;;;;2.51;100.00;97301.74;110164;1242;69167;-73
2023/02/18 04:26:06;;;;;;;64.90;41.00;;;;;;;2.50;100.00;97307.63;110266;1240;69239;-73
2023/02/18 04:28:36;;;;;;;66.10;40.40;;;;;;;2.48;100.00;97309.76;110230;1242;58934;-73
2023/02/18 04:31:06;;;;;;;72.70;44.70;;;;;;;2.45;100.00;97299.92;110244;1243;58873;-73
2023/02/18 04:33:35;;;;;;;68.70;44.60;;;;;;;2.44;100.00;97307.86;110330;1242;69832;-72
2023/02/18 04:36:05;;;;;;;72.30;45.40;;;;;;;2.44;100.00;97308.89;110406;1240;69151;-72
2023/02/18 04:38:35;;;;;;;64.40;39.60;;;;;;;2.45;100.00;97309.55;110360;1249;69808;-73
2023/02/18 04:41:06;;;;;;;84.60;47.30;;;;;;;2.44;100.00;97311.13;110297;1242;58940;-72
2023/02/18 04:43:35;;;;;;;67.30;41.20;;;;;;;2.47;100.00;97309.10;110213;1241;58854;-73
2023/02/18 04:46:06;;;;;;;73.60;43.70;;;;;;;2.46;100.00;97307.11;110169;1244;70735;-72
2023/02/18 04:48:36;;;;;;;69.10;42.00;;;;;;;2.44;100.00;97312.50;110275;1242;69880;-73
2023/02/18 04:51:06;;;;;;;73.30;46.30;;;;;;;2.43;100.00;97302.59;110481;1242;68727;-73
2023/02/18 04:53:36;;;;;;;72.50;43.30;;;;;;;2.43;100.00;97311.18;110295;1242;58895;-73
2023/02/18 04:56:05;;;;;;;74.30;45.90;;;;;;;2.43;100.00;97303.97;110317;1240;58867;-72
2023/02/18 04:58:40;;;;;;;68.60;39.50;;;;;;;2.45;100.00;97314.38;110382;1242;70406;-74
2023/02/18 05:01:12;;;;;;;78.00;46.80;;;;;;;2.44;100.00;97309.23;110363;1242;69095;-73
2023/02/18 05:03:44;;;;;;;71.10;44.30;;;;;;;2.43;100.00;97314.10;110397;1242;69534;-73
2023/02/18 05:06:13;;;;;;;68.60;39.60;;;;;;;2.42;100.00;97324.83;110371;1244;58922;-73
2023/02/18 05:08:42;;;;;;;56.50;37.20;;;;;;;2.41;100.00;97328.81;110333;1242;58878;-73
2023/02/18 05:11:11;;;;;;;59.10;37.10;;;;;;;2.41;100.00;97328.63;110360;1241;70694;-73
2023/02/18 05:13:41;;;;;;;77.50;42.90;;;;;;;2.40;100.00;97345.17;110265;1242;68332;-73
2023/02/18 05:16:10;;;;;;;64.40;41.10;;;;;;;2.40;100.00;97328.14;110372;1242;68344;-73
2023/02/18 05:18:40;;;;;;;77.50;44.00;;;;;;;2.41;100.00;97329.66;110415;1241;58934;-73
2023/02/18 05:21:11;;;;;;;63.30;39.60;;;;;;;2.42;100.00;97351.15;110401;1241;59259;-73
2023/02/18 05:23:40;;;;;;;82.90;47.00;;;;;;;2.44;100.00;97328.02;110239;1249;69960;-73
2023/02/18 05:26:10;;;;;;;77.50;47.80;;;;;;;2.43;100.00;97323.55;110313;1241;69226;-73
2023/02/18 05:28:40;;;;;;;70.70;44.20;;;;;;;2.41;100.00;97327.96;110409;1242;69091;-74
2023/02/18 05:31:09;;;;;;;61.30;37.70;;;;;;;2.39;100.00;97327.17;110340;1243;58869;-74
2023/02/18 05:33:38;;;;;;;74.70;46.40;;;;;;;2.38;100.00;97339.79;110318;1242;58879;-74
2023/02/18 05:36:08;;;;;;;66.50;41.90;;;;;;;2.37;100.00;97326.76;110391;1240;70473;-74
2023/02/18 05:38:37;;;;;;;66.90;42.70;;;;;;;2.35;100.00;97340.08;110404;1241;69375;-71
2023/02/18 05:41:06;;;;;;;70.70;46.80;;;;;;;2.35;100.00;97335.61;110287;1242;69220;-74
2023/02/18 05:44:29;;;;;;;78.90;49.40;;;;;;;2.35;100.00;97333.70;110376;1242;58892;-74
2023/02/18 05:46:23;;;;;;;59.50;36.50;;;;;;;2.37;100.00;97334.52;110347;1242;58847;-73
2023/02/18 05:48:53;;;;;;;68.40;41.90;;;;;;;2.40;100.00;97332.80;110321;1242;71165;-73
2023/02/18 05:51:22;;;;;;;65.60;42.30;;;;;;;2.44;100.00;97331.27;110381;1242;68758;-74
2023/02/18 05:53:50;;;;;;;67.40;42.70;;;;;;;2.46;100.00;97332.58;110209;1242;69886;-74
2023/02/18 05:56:20;;;;;;;72.00;43.50;;;;;;;2.47;100.00;97333.56;110336;1242;58943;-73
2023/02/18 05:58:49;;;;;;;74.40;45.30;;;;;;;2.49;100.00;97320.20;110361;1241;58827;-74
2023/02/18 06:01:18;;;;;;;83.70;48.90;;;;;;;2.51;100.00;97322.55;110309;1240;70494;-74
2023/02/18 06:03:47;;;;;;;67.10;40.70;;;;;;;2.54;100.00;97333.61;110348;1242;69862;-73
2023/02/18 06:06:15;;;;;;;68.50;40.40;;;;;;;2.59;100.00;97328.59;110173;1242;69825;-73
2023/02/18 06:08:44;;;;;;;56.60;36.10;;;;;;;2.60;100.00;97321.16;110298;1240;58872;-73
2023/02/18 06:11:13;;;;;;;83.10;47.90;;;;;;;2.66;100.00;97326.05;110415;1242;58859;-73
2023/02/18 06:13:42;;;;;;;138.80;78.90;;;;;;;2.73;100.00;97330.73;110224;1240;71067;-73
2023/02/18 06:16:10;;;;;;;110.90;68.50;;;;;;;2.69;100.00;97328.32;110332;1240;68758;-73
2023/02/18 06:18:40;;;;;;;89.50;56.20;;;;;;;2.66;100.00;97329.34;110435;1240;68012;-73
2023/02/18 06:21:08;;;;;;;121.80;70.20;;;;;;;2.60;100.00;97330.96;110335;1241;58996;-73
2023/02/18 06:23:37;;;;;;;106.50;68.70;;;;;;;2.55;100.00;97331.33;110242;1241;58963;-73
2023/02/18 06:26:07;;;;;;;97.00;59.50;;;;;;;2.53;100.00;97317.80;110370;1242;71153;-76
2023/02/18 06:28:37;;;;;;;84.70;52.30;;;;;;;2.56;100.00;97321.66;110284;1243;69199;-73
2023/02/18 06:31:06;;;;;;;117.50;70.10;;;;;;;2.62;100.00;97326.77;110164;1244;69259;-73
2023/02/18 06:33:35;;;;;;;80.30;50.20;;;;;;;2.63;100.00;97326.86;110287;1242;58872;-72
2023/02/18 06:36:06;;;;;;;68.60;39.90;;;;;;;2.65;100.00;97321.95;110261;1242;58809;-73
2023/02/18 06:38:37;;;;;;;97.00;55.70;;;;;;;2.72;100.00;97316.82;110248;1242;70200;-71
2023/02/18 06:41:06;;;;;;;78.90;48.30;;;;;;;2.78;100.00;97321.20;110278;1240;69346;-73
2023/02/18 06:43:35;;;;;;;88.70;55.80;;;;;;;2.83;100.00;97322.41;110374;1240;69745;-73
2023/02/18 06:46:04;;;;;;;85.90;49.10;;;;;;;2.87;100.00;97322.23;110265;1242;58947;-73
2023/02/18 06:48:33;;;;;;;70.30;41.30;;;;;;;2.93;100.00;97328.67;110288;1242;58873;-73
2023/02/18 06:51:02;;;;;;;88.40;50.30;;;;;;;3.00;100.00;97325.95;110277;1241;70385;-73
2023/02/18 06:53:32;;;;;;;109.80;56.30;;;;;;;3.07;100.00;97329.77;110223;1242;68509;-73
2023/02/18 06:56:02;;;;;;;;;;;;;;;3.18;100.00;97321.20;110309;1241;69746;-73
2023/02/18 06:58:30;;;;;;;76.70;41.90;;;;;;;3.23;100.00;97320.30;110245;1242;58945;-72
2023/02/18 07:01:00;;;;;;;96.20;55.70;;;;;;;3.26;100.00;97323.45;110258;1242;58869;-73
2023/02/18 07:03:29;;;;;;;125.90;75.30;;;;;;;3.28;100.00;97327.62;110197;1241;71161;-72
2023/02/18 07:05:58;;;;;;;95.30;55.80;;;;;;;3.30;100.00;97322.73;110223;1241;69229;-73
2023/02/18 07:08:29;;;;;;;75.20;45.80;;;;;;;3.35;100.00;97329.58;110258;1242;69095;-73
2023/02/18 07:10:58;;;;;;;71.70;44.40;;;;;;;3.42;100.00;97334.23;110235;1242;58969;-73
2023/02/18 07:13:27;;;;;;;94.60;59.90;;;;;;;3.47;100.00;97326.44;110342;1242;59398;-72
2023/02/18 07:15:56;;;;;;;95.70;52.40;;;;;;;3.59;100.00;97314.68;110237;1240;70622;-72
2023/02/18 07:18:25;;;;;;;94.10;53.70;;;;;;;3.78;100.00;97314.65;110207;1241;69267;-71
2023/02/18 07:20:54;;;;;;;85.60;48.60;;;;;;;3.87;100.00;97320.63;110202;1241;68305;-72
2023/02/18 07:23:23;;;;;;;66.90;39.40;;;;;;;3.96;100.00;97326.89;110243;1242;58947;-73
2023/02/18 07:25:52;;;;;;;62.80;39.00;;;;;;;4.10;100.00;97317.27;110311;1249;58899;-74
2023/02/18 07:28:20;;;;;;;72.30;43.10;;;;;;;4.19;100.00;97320.27;110371;1242;71149;-73
2023/02/18 07:30:49;;;;;;;67.30;42.20;;;;;;;4.26;100.00;97320.61;110270;1242;68219;-73
2023/02/18 07:33:18;;;;;;;71.00;43.00;;;;;;;4.28;100.00;97316.89;110407;1241;68497;-72
2023/02/18 07:35:55;;;;;;;77.50;52.70;;;;;;;4.27;100.00;97321.60;110655;1240;58911;-71
2023/02/18 07:38:26;;;;;;;76.10;49.20;;;;;;;4.13;100.00;97316.44;110385;1242;58871;-71
2023/02/18 07:40:56;;;;;;;67.90;42.00;;;;;;;4.09;100.00;97317.80;110203;1240;69840;-71
2023/02/18 07:43:25;;;;;;;68.50;47.00;;;;;;;4.12;100.00;97316.69;110203;1241;69081;-71
2023/02/18 07:45:54;;;;;;;72.80;47.60;;;;;;;4.13;100.00;97325.77;109556;1246;730843;-71
2023/02/18 07:48:23;;;;;;;66.70;42.60;;;;;;;4.12;100.00;97330.31;110130;1244;58895;-71
2023/02/18 07:50:53;;;;;;;72.50;46.90;;;;;;;4.11;100.00;97327.94;110222;1241;58852;-72
2023/02/18 07:53:22;;;;;;;90.80;57.40;;;;;;;4.14;100.00;97313.81;110209;1242;71170;-71
2023/02/18 07:55:51;;;;;;;76.50;47.90;;;;;;;4.17;100.00;97316.29;110225;1242;69851;-71
2023/02/18 07:58:29;;;;;;;77.00;49.90;;;;;;;4.16;100.00;97316.81;110216;1241;69871;-71
2023/02/18 08:00:57;;;;;;;68.10;44.00;;;;;;;4.15;100.00;97314.10;110194;1242;58939;-71
2023/02/18 08:03:29;;;;;;;74.10;47.00;;;;;;;4.15;100.00;97323.59;110209;1242;59230;-72
2023/02/18 08:05:58;;;;;;;65.90;40.50;;;;;;;4.21;100.00;97329.30;110297;1241;69818;-72
2023/02/18 08:08:29;;;;;;;68.20;45.10;;;;;;;4.28;100.00;97329.50;110292;1241;70082;-71
2023/02/18 08:11:05;;;;;;;60.10;38.30;;;;;;;4.36;100.00;97329.10;110278;1241;69950;-72
2023/02/18 08:13:47;;;;;;;58.90;39.00;;;;;;;4.46;100.00;97332.06;110282;1242;59400;-72
2023/02/18 08:16:18;;;;;;;;;;;;;;;4.52;100.00;97336.10;110238;1241;58830;-72
2023/02/18 08:18:48;;;;;;;57.00;37.60;;;;;;;4.58;100.00;97335.44;110261;1242;69805;-72
2023/02/18 08:21:18;;;;;;;57.70;36.10;;;;;;;4.62;100.00;97333.70;110292;1242;69720;-72
2023/02/18 08:23:47;;;;;;;51.90;34.20;;;;;;;4.69;100.00;97336.30;110248;1242;69826;-71
2023/02/18 08:26:17;;;;;;;56.20;37.20;;;;;;;4.75;100.00;97339.60;110244;1242;58828;-71
2023/02/18 08:28:47;;;;;;;52.70;35.40;;;;;;;4.79;100.00;97341.29;110292;1240;58920;-71
2023/02/18 08:31:22;;;;;;;54.10;33.20;;;;;;;4.85;100.00;97339.23;110308;1242;69707;-73
2023/02/18 08:33:53;;;;;;;53.40;35.80;;;;;;;4.91;100.00;97343.81;110315;1241;68273;-72
2023/02/18 08:36:23;;;;;;;47.90;32.90;;;;;;;4.95;100.00;97348.95;110295;1241;69224;-71
2023/02/18 08:38:51;;;;;;;53.30;36.80;;;;;;;4.98;100.00;97350.86;110280;1242;58879;-72
2023/02/18 08:41:21;;;;;;;42.10;29.90;;;;;;;5.01;100.00;97358.48;110345;1241;58894;-72
2023/02/18 08:43:49;;;;;;;48.30;31.90;;;;;;;5.04;100.00;97355.04;110277;1242;70436;-72
2023/02/18 08:46:18;;;;;;;48.60;30.50;;;;;;;5.10;100.00;97357.33;110136;1241;69209;-72
2023/02/18 08:49:04;;;;;;;47.80;34.40;;;;;;;5.16;100.00;97356.85;110201;1242;70620;-71
2023/02/18 08:51:33;;;;;;;57.90;38.00;;;;;;;5.18;100.00;97355.70;110304;1240;58949;-72
2023/02/18 08:54:02;;;;;;;50.00;34.30;;;;;;;5.22;100.00;97358.27;110271;1242;58897;-72
2023/02/18 08:56:32;;;;;;;62.90;40.60;;;;;;;5.22;100.00;97354.45;110250;1240;71543;-72
2023/02/18 08:59:01;;;;;;;54.90;36.40;;;;;;;5.23;100.00;97353.72;110306;1242;69144;-72
2023/02/18 09:01:30;;;;;;;57.10;36.90;;;;;;;5.27;100.00;97355.90;110136;1244;69694;-73
2023/02/18 09:03:58;;;;;;;65.00;44.80;;;;;;;5.28;100.00;97359.34;110284;1241;58953;-71
2023/02/18 09:06:28;;;;;;;55.80;39.00;;;;;;;5.27;100.00;97360.41;110320;1242;58879;-71
2023/02/18 09:08:57;;;;;;;54.70;35.90;;;;;;;5.26;100.00;97362.88;110261;1241;69124;-72
2023/02/18 09:11:26;;;;;;;49.20;34.10;;;;;;;5.27;100.00;97361.11;110298;1242;69037;-72
2023/02/18 09:13:55;;;;;;;46.10;30.70;;;;;;;5.29;100.00;97363.61;110253;1242;69285;-72
2023/02/18 09:16:24;;;;;;;45.90;31.50;;;;;;;5.30;100.00;97364.92;110236;1242;58934;-72
2023/02/18 09:18:54;;;;;;;48.30;32.20;;;;;;;5.30;100.00;97368.05;110291;1242;58868;-72
2023/02/18 09:21:23;;;;;;;46.60;30.70;;;;;;;5.31;100.00;97371.76;110230;1242;71164;-71
2023/02/18 09:23:52;;;;;;;44.50;29.60;;;;;;;5.34;100.00;97372.30;110295;1241;69228;-72
2023/02/18 09:26:21;;;;;;;46.10;31.60;;;;;;;5.38;100.00;97377.30;110238;1241;69873;-72
2023/02/18 09:28:53;;;;;;;38.80;28.30;;;;;;;5.39;100.00;97378.27;110230;1248;59111;-71
2023/02/18 09:31:25;;;;;;;36.40;26.10;;;;;;;5.44;100.00;97380.10;110230;1240;58884;-71
2023/02/18 09:34:01;;;;;;;43.80;28.70;;;;;;;5.47;100.00;97382.70;110300;1242;70530;-71
2023/02/18 09:36:31;;;;;;;44.00;32.20;;;;;;;5.51;100.00;97383.18;110229;1241;69700;-71
2023/02/18 09:39:00;;;;;;;45.30;31.00;;;;;;;5.54;100.00;97386.98;110276;1241;68105;-71
2023/02/18 09:41:41;;;;;;;42.30;28.40;;;;;;;5.56;100.00;97381.50;110284;1242;58958;-71
2023/02/18 09:44:20;;;;;;;61.60;38.80;;;;;;;5.59;100.00;97386.87;110212;1240;58871;-71
2023/02/18 09:46:58;;;;;;;58.10;38.00;;;;;;;5.61;100.00;97390.73;110264;1241;70526;-71
2023/02/18 09:49:34;;;;;;;56.00;38.70;;;;;;;5.65;100.00;97383.79;110171;1241;69320;-71
2023/02/18 09:52:19;;;;;;;48.30;31.80;;;;;;;5.72;100.00;97380.48;110217;1242;68809;-72
2023/02/18 09:54:48;;;;;;;41.60;29.30;;;;;;;5.80;100.00;97372.98;110315;1242;58931;-72
2023/02/18 09:57:45;;;;;;;45.00;30.40;;;;;;;5.86;100.00;97367.80;110282;1241;58983;-72
2023/02/18 10:00:35;;;;;;;44.80;32.40;;;;;;;5.92;100.00;97365.40;109971;1243;70691;-70
2023/02/18 10:03:13;;;;;;;63.90;45.80;;;;;;;5.96;100.00;97376.30;110224;1242;69835;-71
2023/02/18 10:06:06;;;;;;;84.30;62.60;;;;;;;5.96;100.00;97373.54;110201;1241;68665;-71
2023/02/18 10:08:41;;;;;;;58.20;43.90;;;;;;;5.96;100.00;97372.81;110215;1241;59004;-72
2023/02/18 10:11:20;;;;;;;53.00;38.30;;;;;;;5.97;100.00;97365.34;110139;1244;58878;-71
2023/02/18 10:13:52;;;;;;;57.40;37.60;;;;;;;5.97;100.00;97370.49;110157;1241;71186;-71
2023/02/18 10:16:23;;;;;;;57.60;37.10;;;;;;;5.95;100.00;97375.13;110251;1241;69417;-72
2023/02/18 10:19:03;;;;;;;44.10;30.20;;;;;;;5.87;100.00;97375.17;110254;1247;68595;-71
2023/02/18 10:21:37;;;;;;;55.40;38.20;;;;;;;5.84;100.00;97372.05;110240;1241;58998;-72
2023/02/18 10:24:26;;;;;;;59.30;41.30;;;;;;;5.81;100.00;97364.41;110280;1244;58852;-73
2023/02/18 10:26:56;;;;;;;66.60;44.00;;;;;;;5.51;100.00;97365.69;110296;1241;71159;-73
2023/02/18 10:29:26;;;;;;;59.80;42.30;;;;;;;5.35;100.00;97362.95;110251;1240;69157;-73
2023/02/18 10:32:05;;;;;;;55.20;38.30;;;;;;;5.23;100.00;97357.88;110333;1241;69068;-72
2023/02/18 10:34:41;;;;;;;63.20;40.30;;;;;;;5.18;100.00;97356.42;110379;1242;58940;-72
2023/02/18 10:37:38;;;;;;;64.80;41.80;;;;;;;5.17;100.00;97356.27;110302;1241;58901;-72
2023/02/18 10:40:18;;;;;;;56.90;37.80;;;;;;;5.18;100.00;97355.71;110251;1242;70595;-72
2023/02/18 10:43:11;;;;;;;50.00;33.60;;;;;;;5.18;100.00;97354.49;110189;1242;69243;-72
2023/02/18 10:46:01;;;;;;;64.00;40.70;;;;;;;5.23;100.00;97350.96;110187;1241;69108;-72
2023/02/18 10:49:08;;;;;;;93.50;58.00;;;;;;;5.30;100.00;97349.69;110195;1242;58872;-72
2023/02/18 10:51:43;;;;;;;70.60;42.50;;;;;;;5.49;100.00;97349.22;110272;1242;58887;-72
2023/02/18 10:54:13;;;;;;;57.00;36.80;;;;;;;5.73;100.00;97351.05;110246;1241;71123;-72
2023/02/18 10:56:48;;;;;;;58.10;37.90;;;;;;;6.10;100.00;97341.77;110265;1241;69101;-72
2023/02/18 10:59:23;;;;;;;87.80;56.30;;;;;;;6.75;100.00;97337.34;110221;1241;69103;-72
2023/02/18 11:02:01;;;;;;;46.10;32.00;;;;;;;7.59;100.00;97326.77;110205;1242;58954;-72
2023/02/18 11:04:41;;;;;;;41.20;31.90;;;;;;;8.19;98.40;97315.98;110271;1241;58931;-73
2023/02/18 11:07:24;;;;;;;38.90;28.60;;;;;;;8.63;93.96;97314.00;110279;1242;70986;-72
2023/02/18 11:09:55;;;;;;;37.20;28.50;;;;;;;8.96;91.30;97313.58;110239;1242;69076;-73
2023/02/18 11:12:26;;;;;;;;;;;;;;;9.14;91.64;97313.88;110248;1241;69116;-73
2023/02/18 11:15:04;;;;;;;39.50;30.70;;;;;;;9.18;92.92;97311.67;110229;1241;58912;-74
2023/02/18 11:17:38;;;;;;;62.10;40.90;;;;;;;9.13;92.79;97308.86;110272;1242;58817;-74
2023/02/18 11:20:30;;;;;;;72.60;49.80;;;;;;;9.05;91.64;97305.09;110354;1240;70274;-73
2023/02/18 11:23:13;;;;;;;52.70;38.30;;;;;;;8.67;91.45;97304.88;110342;1242;69777;-73
2023/02/18 11:26:05;;;;;;;59.70;40.80;;;;;;;8.40;92.74;97303.38;110272;1242;70139;-74
2023/02/18 11:28:40;;;;;;;82.60;54.40;;;;;;;8.18;93.65;97301.11;110257;1242;58875;-75
2023/02/18 11:31:15;;;;;;;46.30;34.50;;;;;;;8.16;93.48;97296.95;110440;1240;58872;-72
2023/02/18 11:33:50;;;;;;;58.10;41.40;;;;;;;8.07;94.02;97300.99;110314;1242;69757;-74
2023/02/18 11:36:28;;;;;;;52.50;37.50;;;;;;;7.98;94.53;97300.03;110273;1242;69097;-74
2023/02/18 11:39:25;;;;;;;63.30;45.20;;;;;;;7.85;95.67;97298.05;110333;1240;70238;-73
2023/02/18 11:42:05;;;;;;;51.10;37.40;;;;;;;7.81;96.08;97291.01;110288;1242;58978;-74